Time;durP1;ratioP1;P1;durP2;ratioP2;P2;SDS_P1;SDS_P2;PMS_P1;PMS_P2;Temp;Humidity;BMP_temperature;BMP_pressure;BME280_temperature;BME280_humidity;BME280_pressure;Samples;Min_cycle;Max_cycle;Signal;HPM_P1;HPM_P2
2022/03/25 00:01:23;;;;;;;13.33;7.17;;;13.00;34.10;;;;;;5029505;28;20200;-45
2022/03/25 00:03:51;;;;;;;13.83;6.37;;;12.90;34.10;;;;;;5030034;28;20195;-44
2022/03/25 00:06:18;;;;;;;12.13;6.93;;;12.80;34.20;;;;;;5028941;28;20309;-47
2022/03/25 00:08:45;;;;;;;16.43;6.63;;;12.80;34.40;;;;;;5029155;28;20214;-44
2022/03/25 00:11:14;;;;;;;15.83;7.37;;;12.70;34.40;;;;;;5029468;28;20296;-46
2022/03/25 00:13:41;;;;;;;20.33;8.47;;;12.70;34.60;;;;;;5030181;28;20669;-54
2022/03/25 00:16:09;;;;;;;15.30;7.43;;;12.70;34.70;;;;;;5027781;28;20193;-50
2022/03/25 00:18:36;;;;;;;21.50;8.47;;;12.70;34.90;;;;;;5029746;28;20551;-50
2022/03/25 00:21:03;;;;;;;14.90;7.43;;;12.60;34.90;;;;;;5029361;28;20199;-51
2022/03/25 00:23:30;;;;;;;19.93;8.80;;;12.50;35.00;;;;;;5029032;28;20567;-51
2022/03/25 00:25:58;;;;;;;19.80;9.20;;;12.50;35.00;;;;;;5027817;28;20222;-52
2022/03/25 00:28:26;;;;;;;18.73;8.33;;;12.50;35.20;;;;;;5029637;28;20221;-52
2022/03/25 00:30:53;;;;;;;26.83;11.07;;;12.40;35.30;;;;;;5029021;28;20289;-53
2022/03/25 00:33:21;;;;;;;21.13;9.27;;;12.40;35.40;;;;;;5028857;28;20202;-45
2022/03/25 00:35:48;;;;;;;19.80;9.60;;;12.30;35.50;;;;;;5016791;28;20213;-46
2022/03/25 00:38:15;;;;;;;20.87;8.60;;;12.30;35.60;;;;;;5028146;28;20207;-48
2022/03/25 00:40:43;;;;;;;18.30;8.67;;;12.30;35.70;;;;;;5029199;28;20289;-49
2022/03/25 00:43:12;;;;;;;18.27;8.53;;;12.40;35.80;;;;;;5011039;28;20206;-53
2022/03/25 00:45:41;;;;;;;13.40;7.63;;;12.40;35.80;;;;;;5028504;28;20203;-54
2022/03/25 00:48:08;;;;;;;18.80;9.03;;;12.40;35.90;;;;;;5029199;28;20619;-52
2022/03/25 00:50:35;;;;;;;15.40;8.17;;;12.30;35.90;;;;;;5029486;28;20205;-52
2022/03/25 00:53:03;;;;;;;15.90;7.80;;;12.30;36.00;;;;;;5028139;28;20260;-50
2022/03/25 00:55:30;;;;;;;15.47;7.57;;;12.40;36.20;;;;;;5011353;28;20669;-52
2022/03/25 00:57:58;;;;;;;13.67;7.80;;;12.40;36.30;;;;;;5029032;28;20244;-53
2022/03/25 01:00:25;;;;;;;14.53;8.00;;;12.40;36.40;;;;;;5027150;28;20296;-48
2022/03/25 01:02:54;;;;;;;19.93;10.00;;;12.40;36.40;;;;;;5028703;28;20873;-47
2022/03/25 01:05:23;;;;;;;16.03;8.37;;;12.40;36.70;;;;;;5030095;28;20707;-48
2022/03/25 01:07:50;;;;;;;15.07;8.07;;;12.30;36.60;;;;;;5010239;28;20635;-51
2022/03/25 01:10:18;;;;;;;13.07;7.23;;;12.30;36.80;;;;;;5029236;28;20312;-51
2022/03/25 01:12:46;;;;;;;11.43;6.73;;;12.30;36.90;;;;;;5010846;28;20504;-48
2022/03/25 01:15:15;;;;;;;13.90;7.67;;;12.30;37.00;;;;;;5010691;28;20206;-52
2022/03/25 01:17:42;;;;;;;16.33;9.00;;;12.30;37.10;;;;;;5027927;28;20281;-47
2022/03/25 01:20:11;;;;;;;16.30;8.57;;;12.20;37.20;;;;;;5029547;28;20565;-50
2022/03/25 01:22:39;;;;;;;18.83;9.27;;;12.20;37.30;;;;;;5027380;28;20349;-47
2022/03/25 01:25:07;;;;;;;14.93;8.43;;;12.20;37.40;;;;;;5029079;28;20660;-47
2022/03/25 01:27:34;;;;;;;16.47;8.10;;;12.20;37.50;;;;;;5027084;28;20210;-46
2022/03/25 01:30:02;;;;;;;11.27;6.73;;;12.20;37.60;;;;;;5031826;28;20311;-47
2022/03/25 01:32:29;;;;;;;14.00;7.47;;;12.20;37.60;;;;;;5032025;28;20191;-45
2022/03/25 01:34:57;;;;;;;21.10;10.03;;;12.20;37.70;;;;;;5033248;28;20531;-45
2022/03/25 01:37:25;;;;;;;22.63;10.43;;;12.20;37.90;;;;;;5031567;28;20208;-48
2022/03/25 01:39:52;;;;;;;16.70;9.33;;;12.20;38.10;;;;;;5032432;28;20248;-48
2022/03/25 01:42:30;;;;;;;15.77;8.93;;;12.10;38.00;;;;;;5027880;28;20201;-44
2022/03/25 01:44:57;;;;;;;18.17;10.03;;;12.10;38.10;;;;;;5032367;28;20678;-49
2022/03/25 01:47:29;;;;;;;25.87;11.60;;;12.10;38.20;;;;;;5032242;28;20205;-48
2022/03/25 01:49:56;;;;;;;25.40;12.43;;;12.10;38.30;;;;;;5031407;28;20221;-47
2022/03/25 01:52:27;;;;;;;24.77;12.47;;;12.10;38.50;;;;;;5014656;28;20217;-47
2022/03/25 01:54:54;;;;;;;28.07;14.60;;;12.10;38.60;;;;;;5031166;28;20285;-47
2022/03/25 01:57:25;;;;;;;21.70;11.57;;;12.10;38.80;;;;;;5032302;28;20193;-44
2022/03/25 01:59:54;;;;;;;21.90;10.97;;;12.10;38.80;;;;;;5014040;28;20274;-49
2022/03/25 02:02:22;;;;;;;21.03;11.10;;;12.00;38.80;;;;;;5030493;28;20239;-52
2022/03/25 02:04:49;;;;;;;21.90;11.37;;;12.00;38.80;;;;;;5014039;28;20221;-46
2022/03/25 02:07:16;;;;;;;20.97;9.80;;;12.00;39.00;;;;;;5031603;28;20577;-50
2022/03/25 02:09:49;;;;;;;21.23;11.07;;;12.00;39.00;;;;;;5013282;28;20328;-53
2022/03/25 02:12:16;;;;;;;21.63;10.80;;;11.90;39.10;;;;;;5032300;28;20220;-47
2022/03/25 02:14:43;;;;;;;19.10;10.17;;;11.90;39.30;;;;;;5031707;28;20228;-51
2022/03/25 02:17:11;;;;;;;25.77;13.20;;;11.90;39.30;;;;;;5030101;28;20203;-46
2022/03/25 02:19:39;;;;;;;27.07;14.67;;;11.90;39.60;;;;;;5026167;28;20507;-50
2022/03/25 02:22:08;;;;;;;26.67;13.90;;;11.90;39.90;;;;;;5031643;28;20205;-45
2022/03/25 02:24:37;;;;;;;23.00;11.93;;;11.90;39.90;;;;;;5026236;28;20213;-47
2022/03/25 02:27:06;;;;;;;22.97;11.47;;;11.90;40.00;;;;;;5013746;28;20571;-47
2022/03/25 02:29:34;;;;;;;20.47;10.70;;;11.80;39.90;;;;;;5014662;28;20230;-50
2022/03/25 02:32:03;;;;;;;31.47;14.73;;;11.80;40.00;;;;;;5028872;28;20197;-48
2022/03/25 02:34:30;;;;;;;24.93;12.63;;;11.90;40.30;;;;;;5030520;28;20205;-45
2022/03/25 02:36:58;;;;;;;34.00;16.27;;;11.90;40.30;;;;;;5025255;28;20239;-48
2022/03/25 02:39:27;;;;;;;28.73;14.90;;;11.90;40.40;;;;;;5030632;28;20192;-45
2022/03/25 02:41:54;;;;;;;35.20;16.97;;;11.90;40.50;;;;;;5013523;28;20212;-46
2022/03/25 02:44:22;;;;;;;23.53;12.73;;;11.80;40.60;;;;;;5029981;28;20285;-45
2022/03/25 02:46:49;;;;;;;31.43;15.03;;;11.80;40.60;;;;;;5030895;28;20218;-45
2022/03/25 02:49:18;;;;;;;24.70;12.50;;;11.80;40.80;;;;;;5013731;28;20222;-45
2022/03/25 02:51:45;;;;;;;28.10;14.47;;;11.80;40.70;;;;;;5031194;28;20217;-45
2022/03/25 02:54:12;;;;;;;27.50;13.07;;;11.80;41.00;;;;;;5031604;28;20226;-47
2022/03/25 02:56:40;;;;;;;25.90;13.57;;;11.80;41.00;;;;;;5030496;28;20286;-49
2022/03/25 02:59:07;;;;;;;26.90;13.83;;;11.70;41.10;;;;;;5032165;28;20270;-47
2022/03/25 03:01:34;;;;;;;23.40;11.73;;;11.70;41.10;;;;;;5030491;28;20278;-46
2022/03/25 03:04:02;;;;;;;25.93;13.47;;;11.70;41.30;;;;;;5031172;28;20226;-44
2022/03/25 03:06:29;;;;;;;27.23;13.57;;;11.70;41.40;;;;;;5019654;28;20246;-48
2022/03/25 03:08:56;;;;;;;28.17;14.40;;;11.70;41.60;;;;;;5011196;28;20688;-47
2022/03/25 03:11:24;;;;;;;35.80;16.90;;;11.70;41.60;;;;;;5011552;28;20904;-49
2022/03/25 03:13:53;;;;;;;35.63;17.23;;;11.80;41.90;;;;;;5011761;28;20558;-48
2022/03/25 03:16:20;;;;;;;29.77;14.63;;;11.70;41.90;;;;;;5007444;28;20653;-44
2022/03/25 03:18:47;;;;;;;25.33;13.03;;;11.70;42.00;;;;;;5011360;28;20208;-47
2022/03/25 03:21:14;;;;;;;27.90;14.17;;;11.70;41.90;;;;;;5018098;28;20295;-45
2022/03/25 03:23:42;;;;;;;33.13;16.80;;;11.70;42.10;;;;;;5010410;28;20206;-44
2022/03/25 03:26:09;;;;;;;35.37;17.57;;;11.70;42.20;;;;;;5012218;28;20205;-44
2022/03/25 03:28:36;;;;;;;37.33;18.47;;;11.70;42.30;;;;;;5014787;28;20220;-44
2022/03/25 03:31:04;;;;;;;42.40;18.93;;;11.70;42.40;;;;;;5010919;28;20295;-44
2022/03/25 03:33:31;;;;;;;36.13;17.80;;;11.70;42.70;;;;;;5010777;28;20697;-45
2022/03/25 03:35:59;;;;;;;31.80;16.13;;;11.70;42.70;;;;;;5011004;28;20195;-45
2022/03/25 03:38:26;;;;;;;28.63;14.20;;;11.70;42.70;;;;;;5010024;28;20257;-44
2022/03/25 03:40:53;;;;;;;28.50;14.83;;;11.60;42.50;;;;;;5010952;28;20201;-45
2022/03/25 03:43:20;;;;;;;25.13;12.43;;;11.60;42.60;;;;;;5010807;28;20206;-47
2022/03/25 03:45:47;;;;;;;22.07;11.67;;;11.60;42.60;;;;;;5019830;28;20277;-45
2022/03/25 03:48:16;;;;;;;21.40;10.33;;;11.60;42.60;;;;;;5012683;28;20206;-45
2022/03/25 03:50:43;;;;;;;27.83;14.00;;;11.60;42.70;;;;;;5010292;28;20536;-46
2022/03/25 03:53:10;;;;;;;29.33;13.53;;;11.50;42.80;;;;;;5009876;28;20205;-44
2022/03/25 03:55:38;;;;;;;30.43;15.63;;;11.50;42.90;;;;;;5010290;28;20276;-44
2022/03/25 03:58:05;;;;;;;33.77;15.10;;;11.60;43.10;;;;;;5010193;28;20195;-45
2022/03/25 04:00:32;;;;;;;32.17;16.40;;;11.50;43.60;;;;;;5010235;28;20205;-45
2022/03/25 04:03:00;;;;;;;34.97;17.47;;;11.50;43.10;;;;;;5010064;28;20676;-44
2022/03/25 04:05:28;;;;;;;27.63;14.17;;;11.50;43.10;;;;;;5011302;28;20202;-45
2022/03/25 04:07:55;;;;;;;23.60;12.40;;;11.50;43.10;;;;;;5029249;28;20201;-44
2022/03/25 04:10:22;;;;;;;30.43;15.20;;;11.50;43.10;;;;;;5029481;28;20219;-43
2022/03/25 04:12:49;;;;;;;21.47;11.67;;;11.50;43.10;;;;;;5030105;28;20203;-51
2022/03/25 04:15:17;;;;;;;20.83;10.83;;;11.50;43.10;;;;;;5029976;28;20732;-46
2022/03/25 04:17:45;;;;;;;29.63;14.17;;;11.50;43.10;;;;;;5028932;28;20757;-44
2022/03/25 04:20:15;;;;;;;35.67;17.10;;;11.50;43.20;;;;;;5030286;28;20194;-46
2022/03/25 04:22:44;;;;;;;28.27;14.10;;;11.50;43.30;;;;;;5024692;28;20617;-45
2022/03/25 04:25:12;;;;;;;23.30;12.13;;;11.50;43.30;;;;;;5029798;28;20193;-47
2022/03/25 04:27:50;;;;;;;30.47;15.23;;;11.50;43.30;;;;;;5029586;28;20242;-47
2022/03/25 04:30:19;;;;;;;34.00;16.50;;;11.60;43.40;;;;;;5029245;28;20228;-48
2022/03/25 04:32:46;;;;;;;28.17;14.33;;;11.50;43.50;;;;;;5029335;28;20677;-46
2022/03/25 04:35:13;;;;;;;40.27;19.47;;;11.50;43.50;;;;;;5030110;28;20227;-46
2022/03/25 04:37:41;;;;;;;39.23;19.80;;;11.60;43.90;;;;;;5028127;28;20662;-45
2022/03/25 04:40:11;;;;;;;41.53;19.13;;;11.50;44.00;;;;;;5030037;28;20307;-47
2022/03/25 04:42:38;;;;;;;38.67;18.03;;;11.50;44.00;;;;;;5029416;28;20195;-51
2022/03/25 04:45:06;;;;;;;39.67;19.63;;;11.50;44.00;;;;;;5029015;28;20197;-46
2022/03/25 04:47:34;;;;;;;41.47;19.53;;;11.50;44.20;;;;;;5029157;28;20687;-50
2022/03/25 04:50:01;;;;;;;34.37;17.37;;;11.50;44.20;;;;;;5029699;28;20577;-50
2022/03/25 04:52:28;;;;;;;42.93;20.10;;;11.50;44.10;;;;;;5029503;28;20255;-47
2022/03/25 04:54:55;;;;;;;44.60;21.47;;;11.50;44.30;;;;;;5029136;28;20197;-46
2022/03/25 04:57:24;;;;;;;41.07;20.47;;;11.50;44.40;;;;;;5029431;28;20258;-45
2022/03/25 04:59:51;;;;;;;41.63;19.80;;;11.50;44.50;;;;;;5028992;28;20654;-48
2022/03/25 05:02:18;;;;;;;37.70;19.03;;;11.50;44.50;;;;;;5028376;28;20281;-45
2022/03/25 05:04:45;;;;;;;29.23;15.27;;;11.50;44.60;;;;;;5029452;28;20195;-47
2022/03/25 05:07:16;;;;;;;31.37;16.37;;;11.50;44.40;;;;;;5012539;28;20319;-46
2022/03/25 05:09:43;;;;;;;44.53;20.67;;;11.50;44.40;;;;;;5009281;28;20223;-49
2022/03/25 05:12:12;;;;;;;38.87;18.87;;;11.60;44.60;;;;;;5009500;28;20199;-48
2022/03/25 05:14:41;;;;;;;43.83;21.10;;;11.60;44.50;;;;;;5009491;28;20204;-46
2022/03/25 05:17:08;;;;;;;41.70;19.73;;;11.60;44.70;;;;;;5008861;28;20342;-47
2022/03/25 05:19:35;;;;;;;34.50;17.97;;;11.60;45.30;;;;;;5009631;28;20199;-44
2022/03/25 05:22:03;;;;;;;42.50;19.80;;;11.60;44.60;;;;;;5009178;28;20200;-44
2022/03/25 05:24:30;;;;;;;42.20;20.87;;;11.60;44.60;;;;;;5009212;28;20210;-50
2022/03/25 05:26:59;;;;;;;39.13;18.73;;;11.60;44.70;;;;;;5009262;28;20631;-48
2022/03/25 05:29:27;;;;;;;33.63;17.37;;;11.60;44.70;;;;;;5009548;28;20231;-46
2022/03/25 05:31:56;;;;;;;31.60;17.03;;;11.60;44.60;;;;;;5008707;28;20197;-51
2022/03/25 05:34:23;;;;;;;28.27;14.60;;;11.60;44.60;;;;;;5009351;28;20210;-50
2022/03/25 05:36:50;;;;;;;27.47;13.87;;;11.60;44.60;;;;;;5008517;28;20195;-50
2022/03/25 05:39:17;;;;;;;29.50;15.50;;;11.60;44.60;;;;;;5009154;28;20674;-49
2022/03/25 05:41:45;;;;;;;26.27;13.93;;;11.60;44.60;;;;;;5016349;28;20204;-45
2022/03/25 05:44:12;;;;;;;28.20;14.63;;;11.60;44.70;;;;;;5019139;28;20198;-44
2022/03/25 05:46:39;;;;;;;31.67;14.93;;;11.60;44.70;;;;;;5014424;28;20650;-48
2022/03/25 05:49:08;;;;;;;27.40;13.77;;;11.70;44.70;;;;;;5027988;28;20689;-46
2022/03/25 05:51:35;;;;;;;30.30;15.67;;;11.70;44.60;;;;;;5025893;28;20647;-44
2022/03/25 05:54:02;;;;;;;41.73;19.80;;;11.70;44.70;;;;;;5027044;28;20209;-46
2022/03/25 05:56:29;;;;;;;43.00;20.73;;;11.70;44.80;;;;;;5020804;28;20202;-49
2022/03/25 05:58:56;;;;;;;40.17;20.60;;;11.80;45.10;;;;;;5026967;28;20670;-45
2022/03/25 06:01:23;;;;;;;35.63;18.20;;;11.80;45.00;;;;;;5022871;28;20580;-50
2022/03/25 06:03:50;;;;;;;37.20;18.03;;;11.80;45.10;;;;;;5025919;28;20252;-51
2022/03/25 06:06:19;;;;;;;36.03;16.53;;;11.80;45.00;;;;;;5022317;28;20573;-50
2022/03/25 06:08:46;;;;;;;29.47;14.97;;;11.90;45.00;;;;;;5019814;28;20219;-47
2022/03/25 06:11:13;;;;;;;31.93;15.57;;;11.90;44.90;;;;;;5021577;28;20254;-47
2022/03/25 06:13:40;;;;;;;24.53;13.53;;;12.00;44.80;;;;;;5024965;28;20212;-45
2022/03/25 06:16:07;;;;;;;28.17;14.40;;;12.10;44.80;;;;;;5024082;28;20227;-45
2022/03/25 06:18:35;;;;;;;29.67;15.20;;;12.10;44.70;;;;;;5010498;28;20548;-46
2022/03/25 06:21:02;;;;;;;29.83;15.53;;;12.10;44.70;;;;;;5023610;28;20195;-45
2022/03/25 06:23:30;;;;;;;40.17;19.03;;;12.20;44.70;;;;;;5021047;28;20204;-50
2022/03/25 06:25:58;;;;;;;46.97;19.30;;;12.30;44.80;;;;;;5022909;28;20638;-48
2022/03/25 06:28:26;;;;;;;32.33;17.37;;;12.40;44.80;;;;;;5026902;28;20223;-50
2022/03/25 06:30:53;;;;;;;36.93;19.30;;;12.50;44.70;;;;;;5009549;28;20215;-47
2022/03/25 06:33:20;;;;;;;36.00;17.97;;;12.70;44.50;;;;;;5025208;28;20223;-48
2022/03/25 06:35:47;;;;;;;38.07;19.50;;;12.80;44.40;;;;;;5019126;28;20224;-51
2022/03/25 06:38:14;;;;;;;30.17;15.77;;;12.90;44.30;;;;;;5016524;28;20226;-49
2022/03/25 06:40:43;;;;;;;31.17;15.67;;;13.00;44.20;;;;;;5019291;28;20201;-46
2022/03/25 06:43:10;;;;;;;35.13;17.70;;;13.10;44.00;;;;;;5017180;28;20687;-50
2022/03/25 06:45:37;;;;;;;28.07;14.93;;;13.20;44.00;;;;;;5010640;28;20199;-48
2022/03/25 06:48:05;;;;;;;24.23;13.23;;;13.20;43.80;;;;;;5025746;28;20789;-49
2022/03/25 06:50:33;;;;;;;26.60;13.67;;;13.30;44.40;;;;;;5030893;28;20608;-46
2022/03/25 06:53:02;;;;;;;39.23;19.50;;;13.40;43.70;;;;;;5028105;28;20705;-46
2022/03/25 06:55:30;;;;;;;29.93;15.87;;;13.40;43.70;;;;;;5020710;28;20277;-48
2022/03/25 06:57:59;;;;;;;31.33;15.43;;;13.40;43.70;;;;;;5011904;28;20199;-45
2022/03/25 07:00:27;;;;;;;29.17;14.53;;;13.50;43.70;;;;;;5018454;28;20245;-51
2022/03/25 07:02:55;;;;;;;29.83;15.43;;;13.50;43.70;;;;;;5025548;28;20195;-46
2022/03/25 07:05:24;;;;;;;27.30;15.03;;;13.50;43.70;;;;;;5028397;28;20281;-50
2022/03/25 07:07:52;;;;;;;36.67;18.43;;;13.50;43.60;;;;;;5017906;28;20193;-47
2022/03/25 07:10:23;;;;;;;28.43;15.93;;;13.60;43.70;;;;;;4999234;28;20228;-47
2022/03/25 07:12:51;;;;;;;27.87;15.03;;;13.60;43.60;;;;;;5011632;28;20237;-50
2022/03/25 07:15:21;;;;;;;29.43;15.43;;;13.70;43.60;;;;;;5010874;28;20206;-51
2022/03/25 07:17:48;;;;;;;29.23;14.30;;;13.70;43.50;;;;;;5006807;28;20279;-46
2022/03/25 07:20:17;;;;;;;28.67;15.23;;;13.80;43.50;;;;;;5008871;28;20478;-46
2022/03/25 07:22:45;;;;;;;25.47;14.00;;;13.90;43.50;;;;;;5010564;28;20199;-50
2022/03/25 07:25:13;;;;;;;24.30;13.37;;;14.00;43.50;;;;;;5013788;28;20198;-47
2022/03/25 07:27:41;;;;;;;27.73;14.83;;;14.00;43.30;;;;;;5010562;28;20211;-48
2022/03/25 07:30:10;;;;;;;30.03;15.97;;;14.10;43.30;;;;;;5009347;28;20215;-46
2022/03/25 07:32:38;;;;;;;29.57;15.60;;;14.20;43.30;;;;;;5009822;28;20286;-47
2022/03/25 07:35:07;;;;;;;24.07;14.07;;;14.30;43.20;;;;;;5010823;28;20199;-45
2022/03/25 07:37:34;;;;;;;41.13;19.93;;;14.40;43.20;;;;;;5010390;28;20210;-45
2022/03/25 07:40:01;;;;;;;37.07;19.03;;;14.50;43.30;;;;;;5010510;28;20234;-46
2022/03/25 07:42:28;;;;;;;26.80;14.40;;;14.50;43.10;;;;;;5009988;28;20277;-45
2022/03/25 07:44:57;;;;;;;25.03;13.80;;;14.60;43.10;;;;;;5008123;28;20584;-48
2022/03/25 07:47:24;;;;;;;32.10;17.13;;;14.80;43.10;;;;;;5009396;28;20363;-46
2022/03/25 07:49:53;;;;;;;29.27;15.10;;;14.80;42.90;;;;;;5020690;28;20263;-51
2022/03/25 07:52:20;;;;;;;31.03;14.73;;;15.00;42.90;;;;;;5009411;28;20233;-47
2022/03/25 07:54:47;;;;;;;22.23;12.77;;;15.00;42.70;;;;;;5009708;28;20202;-49
2022/03/25 07:57:14;;;;;;;26.90;13.67;;;15.20;42.70;;;;;;5009723;28;20308;-50
2022/03/25 07:59:41;;;;;;;21.97;12.10;;;15.20;42.50;;;;;;5009422;28;20287;-46
2022/03/25 08:02:09;;;;;;;30.50;14.87;;;15.30;42.40;;;;;;5008681;28;20210;-44
2022/03/25 08:04:36;;;;;;;29.10;14.70;;;15.50;42.50;;;;;;5005835;28;20291;-47
2022/03/25 08:07:04;;;;;;;35.37;16.97;;;15.60;42.60;;;;;;5022940;28;20237;-48
2022/03/25 08:09:32;;;;;;;32.37;15.97;;;16.30;42.50;;;;;;5027218;28;20212;-50
2022/03/25 08:12:00;;;;;;;29.77;15.03;;;17.60;41.40;;;;;;5028233;28;20222;-48
2022/03/25 08:14:27;;;;;;;28.10;14.10;;;19.00;40.00;;;;;;5029938;28;20198;-46
2022/03/25 08:16:54;;;;;;;26.63;14.03;;;20.20;38.60;;;;;;5029248;28;20554;-45
2022/03/25 08:19:21;;;;;;;26.50;13.90;;;21.20;37.40;;;;;;5028425;28;20278;-45
2022/03/25 08:21:48;;;;;;;27.80;14.73;;;22.00;36.10;;;;;;5028824;28;20199;-45
2022/03/25 08:29:42;;;;;;;28.23;13.82;;;24.10;33.70;;;;;;4992869;28;20283;-53
2022/03/25 08:32:10;;;;;;;20.83;11.82;;;24.60;33.30;;;;;;5027342;28;20229;-46
2022/03/25 08:34:37;;;;;;;23.48;13.68;;;25.00;32.40;;;;;;5029544;28;20194;-45
2022/03/25 08:37:04;;;;;;;17.85;11.10;;;25.40;31.50;;;;;;5027688;28;20225;-45
2022/03/25 08:39:33;;;;;;;20.95;12.23;;;25.70;31.40;;;;;;5029143;28;20209;-46
2022/03/25 08:42:01;;;;;;;24.35;12.65;;;26.10;30.90;;;;;;5028382;28;20550;-45
2022/03/25 08:44:28;;;;;;;20.50;11.70;;;26.40;30.40;;;;;;5029858;28;20201;-45
2022/03/25 08:46:55;;;;;;;18.25;10.98;;;26.70;30.10;;;;;;5028245;28;20222;-46
2022/03/25 08:49:22;;;;;;;11.73;8.77;;;26.90;29.90;;;;;;5028256;28;20270;-46
2022/03/25 08:51:49;;;;;;;12.57;7.65;;;27.30;29.70;;;;;;5029203;28;20578;-47
2022/03/25 08:54:18;;;;;;;13.02;9.23;;;27.80;29.60;;;;;;5028575;28;20282;-49
2022/03/25 08:56:47;;;;;;;16.48;10.52;;;28.10;29.10;;;;;;5028868;28;20563;-47
2022/03/25 08:59:14;;;;;;;24.35;13.77;;;28.30;28.80;;;;;;5028916;28;20201;-47
2022/03/25 09:01:42;;;;;;;19.50;12.07;;;28.40;28.40;;;;;;5027088;28;20748;-46
2022/03/25 09:04:09;;;;;;;18.10;11.40;;;28.60;28.30;;;;;;5028266;28;20206;-49
2022/03/25 09:06:37;;;;;;;13.65;8.90;;;28.60;28.10;;;;;;5028032;28;20238;-48
2022/03/25 09:09:04;;;;;;;16.38;10.88;;;28.90;28.20;;;;;;5028341;28;20191;-47
2022/03/25 09:11:31;;;;;;;15.18;9.30;;;29.10;27.90;;;;;;5020097;28;20241;-47
2022/03/25 09:14:02;;;;;;;14.98;9.68;;;29.20;27.80;;;;;;5028568;28;20198;-47
2022/03/25 09:16:30;;;;;;;15.35;10.20;;;29.30;27.80;;;;;;5028291;28;20265;-48
2022/03/25 09:18:57;;;;;;;14.35;9.43;;;29.50;27.70;;;;;;5028613;28;20194;-46
2022/03/25 09:21:25;;;;;;;16.60;9.57;;;29.60;27.60;;;;;;5028812;28;20280;-49
2022/03/25 09:23:52;;;;;;;8.60;7.05;;;29.80;27.30;;;;;;5028379;28;20206;-48
2022/03/25 09:26:19;;;;;;;8.07;6.60;;;29.90;27.30;;;;;;5028827;28;20199;-47
2022/03/25 09:28:46;;;;;;;10.32;6.63;;;30.40;27.20;;;;;;5028540;28;20206;-49
2022/03/25 09:31:15;;;;;;;9.50;7.50;;;30.60;27.00;;;;;;5027231;28;20250;-46
2022/03/25 09:33:42;;;;;;;10.52;8.10;;;30.70;26.80;;;;;;5022764;28;20199;-47
2022/03/25 09:36:09;;;;;;;13.63;9.68;;;30.70;26.50;;;;;;5028501;28;20191;-45
2022/03/25 09:38:36;;;;;;;10.82;7.35;;;30.80;26.20;;;;;;5027399;28;20208;-45
2022/03/25 09:41:06;;;;;;;8.65;6.13;;;31.00;26.20;;;;;;5022042;28;20252;-46
2022/03/25 09:43:34;;;;;;;14.63;9.48;;;31.20;26.10;;;;;;5026768;28;20277;-48
2022/03/25 09:46:01;;;;;;;11.68;7.57;;;31.40;25.80;;;;;;5022450;28;20625;-45
2022/03/25 09:48:30;;;;;;;8.88;6.68;;;31.50;25.60;;;;;;5030147;28;20198;-45
2022/03/25 09:50:57;;;;;;;10.98;7.25;;;31.60;25.70;;;;;;5032281;28;20203;-46
2022/03/25 09:53:29;;;;;;;7.95;6.00;;;31.60;25.50;;;;;;5031485;28;20194;-50
2022/03/25 09:55:56;;;;;;;10.68;6.80;;;31.80;25.60;;;;;;5032067;28;20245;-47
2022/03/25 09:58:23;;;;;;;10.02;6.85;;;31.80;25.30;;;;;;5032194;28;20628;-45
2022/03/25 10:00:52;;;;;;;12.95;8.60;;;31.80;25.30;;;;;;5031716;28;20214;-49
2022/03/25 10:03:27;;;;;;;13.90;8.43;;;31.90;25.10;;;;;;5031152;28;20280;-46
2022/03/25 10:05:57;;;;;;;8.43;6.90;;;32.00;25.00;;;;;;5026487;28;20242;-48
2022/03/25 10:08:30;;;;;;;12.32;7.80;;;32.10;25.10;;;;;;5023457;28;20206;-45
2022/03/25 10:11:17;;;;;;;12.07;8.35;;;32.30;24.90;;;;;;5031489;28;20345;-46
2022/03/25 10:13:44;;;;;;;10.32;7.05;;;32.20;24.70;;;;;;5031360;28;20666;-44
2022/03/25 10:16:26;;;;;;;9.45;6.95;;;32.40;25.30;;;;;;5031028;28;20205;-44
2022/03/25 10:18:54;;;;;;;10.85;7.15;;;32.40;24.70;;;;;;5030063;28;20190;-48
2022/03/25 10:21:22;;;;;;;22.80;10.48;;;32.60;24.70;;;;;;5023818;28;20246;-49
2022/03/25 10:23:50;;;;;;;12.90;9.30;;;32.70;24.40;;;;;;5026373;28;20305;-48
2022/03/25 10:26:17;;;;;;;14.13;10.18;;;32.70;24.30;;;;;;5021353;28;20195;-49
2022/03/25 10:28:46;;;;;;;9.63;6.90;;;32.70;24.10;;;;;;5027165;28;20198;-44
2022/03/25 10:31:16;;;;;;;7.97;6.18;;;32.80;24.20;;;;;;5026355;28;20219;-46
2022/03/25 10:33:49;;;;;;;10.15;7.75;;;32.80;24.30;;;;;;5024543;28;20190;-52
2022/03/25 10:36:19;;;;;;;11.75;6.30;;;32.90;24.20;;;;;;5027329;28;20186;-45
2022/03/25 10:38:50;;;;;;;14.23;8.75;;;33.00;24.20;;;;;;5026697;28;20203;-45
2022/03/25 10:41:20;;;;;;;8.25;6.93;;;33.20;24.10;;;;;;5025830;28;20194;-47
2022/03/25 10:43:53;;;;;;;7.28;5.35;;;33.30;24.10;;;;;;5028520;28;20202;-47
2022/03/25 10:46:31;;;;;;;12.00;7.45;;;33.50;24.10;;;;;;5029877;28;20221;-47
2022/03/25 10:48:59;;;;;;;14.25;8.07;;;33.50;23.70;;;;;;5028279;28;20217;-50
2022/03/25 10:51:27;;;;;;;9.48;7.50;;;33.30;23.60;;;;;;5028254;28;20215;-50
2022/03/25 10:54:00;;;;;;;12.90;7.75;;;33.40;23.70;;;;;;5027503;28;20659;-53
2022/03/25 10:56:30;;;;;;;11.55;8.55;;;33.30;23.50;;;;;;5029401;28;20690;-46
2022/03/25 10:58:58;;;;;;;8.07;6.13;;;33.30;23.40;;;;;;5027910;28;20198;-48
2022/03/25 11:01:25;;;;;;;10.68;7.18;;;33.40;23.50;;;;;;5029898;28;20289;-51
2022/03/25 11:03:54;;;;;;;8.35;5.88;;;33.30;23.40;;;;;;5012346;28;20237;-45
2022/03/25 11:06:21;;;;;;;10.57;6.32;;;33.40;23.50;;;;;;5029304;28;20238;-45
2022/03/25 11:08:49;;;;;;;11.43;7.15;;;33.60;23.50;;;;;;5020769;28;20675;-48
2022/03/25 11:11:18;;;;;;;10.30;7.03;;;33.60;23.10;;;;;;5021847;28;20214;-48
2022/03/25 11:13:46;;;;;;;13.40;7.18;;;33.30;23.10;;;;;;5024384;28;20581;-47
2022/03/25 11:16:17;;;;;;;12.95;8.93;;;33.30;23.10;;;;;;5023241;28;20195;-50
2022/03/25 11:18:45;;;;;;;13.38;9.07;;;33.20;22.90;;;;;;5027188;28;20281;-47
2022/03/25 11:21:14;;;;;;;9.52;6.32;;;33.10;23.00;;;;;;5021570;28;20207;-48
2022/03/25 11:23:45;;;;;;;10.10;6.88;;;33.10;23.10;;;;;;5022238;28;20210;-50
2022/03/25 11:26:15;;;;;;;6.80;6.00;;;33.10;23.10;;;;;;4996426;28;20250;-48
2022/03/25 11:28:44;;;;;;;13.77;8.25;;;33.30;23.20;;;;;;5030550;28;20442;-50
2022/03/25 11:31:11;;;;;;;14.80;7.95;;;33.10;22.90;;;;;;5007474;28;20587;-50
2022/03/25 11:34:09;;;;;;;8.85;6.75;;;33.00;23.00;;;;;;5030321;28;20269;-49
2022/03/25 11:36:40;;;;;;;11.32;7.82;;;32.90;23.20;;;;;;5022342;28;20586;-46
2022/03/25 11:39:26;;;;;;;13.10;8.80;;;33.00;23.30;;;;;;5030243;28;20594;-50
2022/03/25 11:41:54;;;;;;;9.40;6.93;;;32.80;23.30;;;;;;5030251;28;20297;-50
2022/03/25 11:44:25;;;;;;;6.20;5.60;;;32.80;23.50;;;;;;5029608;28;20194;-53
2022/03/25 11:47:15;;;;;;;6.93;5.38;;;32.80;23.50;;;;;;5022409;28;20199;-51
2022/03/25 11:49:43;;;;;;;8.10;5.50;;;33.10;23.50;;;;;;5025454;28;20206;-48
2022/03/25 11:52:29;;;;;;;9.65;6.75;;;33.30;23.50;;;;;;5021765;28;20627;-45
2022/03/25 11:54:59;;;;;;;5.75;5.07;;;33.20;23.30;;;;;;5025405;28;20202;-48
2022/03/25 11:57:27;;;;;;;9.88;7.00;;;33.30;23.40;;;;;;5021662;28;20233;-46
2022/03/25 11:59:57;;;;;;;9.43;6.47;;;33.30;23.30;;;;;;5024056;28;20253;-47
2022/03/25 12:02:27;;;;;;;9.07;6.53;;;32.90;23.40;;;;;;5029150;28;20190;-47
2022/03/25 12:04:54;;;;;;;6.50;5.80;;;32.70;23.50;;;;;;5023501;28;20655;-50
2022/03/25 12:07:21;;;;;;;12.95;7.75;;;32.50;23.60;;;;;;5016655;28;20231;-46
2022/03/25 12:09:48;;;;;;;8.43;6.20;;;32.40;23.70;;;;;;5020003;28;20202;-45
2022/03/25 12:12:15;;;;;;;12.65;7.00;;;32.40;23.80;;;;;;5012577;28;20699;-48
2022/03/25 12:15:11;;;;;;;6.18;5.57;;;32.30;23.70;;;;;;5024130;28;20607;-48
2022/03/25 12:17:38;;;;;;;6.82;5.97;;;32.30;23.80;;;;;;5027682;28;20198;-47
2022/03/25 12:20:07;;;;;;;7.63;6.03;;;32.30;23.80;;;;;;5018066;28;20187;-47
2022/03/25 12:22:39;;;;;;;7.53;5.15;;;32.10;23.70;;;;;;5021153;28;20191;-51
2022/03/25 12:25:15;;;;;;;12.95;8.82;;;31.80;24.00;;;;;;5024195;28;20195;-48
2022/03/25 12:27:43;;;;;;;9.10;6.30;;;31.40;24.00;;;;;;5025136;28;20270;-51
2022/03/25 12:30:14;;;;;;;9.60;6.20;;;31.00;24.30;;;;;;5019625;28;20195;-45
2022/03/25 12:32:42;;;;;;;8.38;6.07;;;30.70;24.50;;;;;;5021865;28;20646;-45
2022/03/25 12:35:13;;;;;;;8.50;5.68;;;30.50;24.60;;;;;;5018636;28;20195;-49
2022/03/25 12:38:16;;;;;;;8.38;6.13;;;30.20;24.70;;;;;;5027095;28;20190;-50
2022/03/25 12:40:45;;;;;;;6.57;5.35;;;30.10;24.90;;;;;;5025183;28;20214;-48
2022/03/25 12:43:12;;;;;;;7.80;6.30;;;30.20;24.90;;;;;;5019482;28;20230;-46
2022/03/25 12:45:44;;;;;;;12.25;6.45;;;30.10;25.00;;;;;;5019739;28;20206;-46